sensor_id;sensor_type;location;lat;lon;timestamp;noise_LAeq;noise_LA_min;noise_LA_max;noise_LA01;noise_LA95
80324;Laerm;69639;52.380;9.962;2023-05-28T00:01:29;27.22;26.03;29.88;;
80324;Laerm;69639;52.380;9.962;2023-05-28T00:03:31;27.23;25.91;30.29;;
80324;Laerm;69639;52.380;9.962;2023-05-28T00:05:33;27.23;26.12;31.42;;
80324;Laerm;69639;52.380;9.962;2023-05-28T00:07:34;27.27;26.09;31.22;;
80324;Laerm;69639;52.380;9.962;2023-05-28T00:09:37;27.23;26.21;29.48;;
80324;Laerm;69639;52.380;9.962;2023-05-28T00:11:38;27.24;26.12;30.82;;
80324;Laerm;69639;52.380;9.962;2023-05-28T00:13:40;27.27;25.98;30.83;;
80324;Laerm;69639;52.380;9.962;2023-05-28T00:15:42;27.25;25.59;31.95;;
80324;Laerm;69639;52.380;9.962;2023-05-28T00:17:43;27.22;26.17;31.70;;
80324;Laerm;69639;52.380;9.962;2023-05-28T00:19:45;27.24;26.09;29.67;;
80324;Laerm;69639;52.380;9.962;2023-05-28T00:21:47;27.24;25.74;29.95;;
80324;Laerm;69639;52.380;9.962;2023-05-28T00:23:49;27.31;26.12;31.05;;
80324;Laerm;69639;52.380;9.962;2023-05-28T00:25:50;27.32;25.71;44.78;;
80324;Laerm;69639;52.380;9.962;2023-05-28T00:27:52;27.25;26.05;31.96;;
80324;Laerm;69639;52.380;9.962;2023-05-28T00:29:54;27.22;26.01;29.65;;
80324;Laerm;69639;52.380;9.962;2023-05-28T00:31:56;27.21;26.05;30.18;;
80324;Laerm;69639;52.380;9.962;2023-05-28T00:33:58;27.22;26.07;29.94;;
80324;Laerm;69639;52.380;9.962;2023-05-28T00:36:00;27.21;25.93;30.72;;
80324;Laerm;69639;52.380;9.962;2023-05-28T00:38:01;27.23;26.13;31.83;;
80324;Laerm;69639;52.380;9.962;2023-05-28T00:40:03;27.30;26.03;30.02;;
80324;Laerm;69639;52.380;9.962;2023-05-28T00:42:05;27.24;25.93;30.94;;
80324;Laerm;69639;52.380;9.962;2023-05-28T00:44:07;27.22;26.08;31.18;;
80324;Laerm;69639;52.380;9.962;2023-05-28T00:46:09;27.23;26.08;30.92;;
80324;Laerm;69639;52.380;9.962;2023-05-28T00:48:11;27.23;26.06;37.81;;
80324;Laerm;69639;52.380;9.962;2023-05-28T00:50:13;27.22;26.12;32.04;;
80324;Laerm;69639;52.380;9.962;2023-05-28T00:52:14;27.21;26.07;30.63;;
80324;Laerm;69639;52.380;9.962;2023-05-28T00:54:35;27.25;25.94;41.62;;
80324;Laerm;69639;52.380;9.962;2023-05-28T00:56:56;27.22;25.77;31.73;;
80324;Laerm;69639;52.380;9.962;2023-05-28T00:59:17;27.25;26.01;31.08;;
80324;Laerm;69639;52.380;9.962;2023-05-28T01:01:37;28.01;26.10;47.82;;
80324;Laerm;69639;52.380;9.962;2023-05-28T01:03:58;27.32;25.86;44.07;;
80324;Laerm;69639;52.380;9.962;2023-05-28T01:06:00;27.83;26.12;45.61;;
80324;Laerm;69639;52.380;9.962;2023-05-28T01:08:02;27.48;26.09;37.64;;
80324;Laerm;69639;52.380;9.962;2023-05-28T01:10:04;27.66;26.15;45.98;;
80324;Laerm;69639;52.380;9.962;2023-05-28T01:12:07;27.32;26.08;31.00;;
80324;Laerm;69639;52.380;9.962;2023-05-28T01:14:11;27.29;26.17;33.44;;
80324;Laerm;69639;52.380;9.962;2023-05-28T01:16:12;27.26;26.17;31.08;;
80324;Laerm;69639;52.380;9.962;2023-05-28T01:18:14;27.26;25.75;30.85;;
80324;Laerm;69639;52.380;9.962;2023-05-28T01:20:16;27.26;26.01;30.92;;
80324;Laerm;69639;52.380;9.962;2023-05-28T01:22:22;27.26;26.06;30.65;;
80324;Laerm;69639;52.380;9.962;2023-05-28T01:24:27;27.26;25.98;31.10;;
80324;Laerm;69639;52.380;9.962;2023-05-28T01:26:29;27.95;26.25;46.89;;
80324;Laerm;69639;52.380;9.962;2023-05-28T01:28:31;27.39;26.14;37.91;;
80324;Laerm;69639;52.380;9.962;2023-05-28T01:30:33;27.32;26.15;45.22;;
80324;Laerm;69639;52.380;9.962;2023-05-28T01:32:53;27.28;26.04;35.72;;
80324;Laerm;69639;52.380;9.962;2023-05-28T01:34:54;27.23;26.04;31.65;;
80324;Laerm;69639;52.380;9.962;2023-05-28T01:37:04;27.24;25.85;32.09;;
80324;Laerm;69639;52.380;9.962;2023-05-28T01:39:07;27.25;26.10;30.54;;
80324;Laerm;69639;52.380;9.962;2023-05-28T01:41:20;27.24;25.94;31.86;;
80324;Laerm;69639;52.380;9.962;2023-05-28T01:43:32;27.24;26.01;29.90;;
80324;Laerm;69639;52.380;9.962;2023-05-28T01:45:36;27.62;26.16;43.10;;
80324;Laerm;69639;52.380;9.962;2023-05-28T01:47:39;27.24;26.04;32.16;;
80324;Laerm;69639;52.380;9.962;2023-05-28T01:49:51;27.23;26.14;31.17;;
80324;Laerm;69639;52.380;9.962;2023-05-28T01:51:52;27.24;26.00;31.60;;
80324;Laerm;69639;52.380;9.962;2023-05-28T01:54:13;27.27;25.74;31.40;;
80324;Laerm;69639;52.380;9.962;2023-05-28T01:56:14;27.26;26.06;31.24;;
80324;Laerm;69639;52.380;9.962;2023-05-28T01:58:16;27.31;25.81;43.93;;
80324;Laerm;69639;52.380;9.962;2023-05-28T02:00:18;27.24;26.10;31.83;;
80324;Laerm;69639;52.380;9.962;2023-05-28T02:02:20;27.25;25.99;31.46;;
80324;Laerm;69639;52.380;9.962;2023-05-28T02:04:22;27.23;26.20;31.19;;
80324;Laerm;69639;52.380;9.962;2023-05-28T02:06:25;27.27;26.20;31.50;;
80324;Laerm;69639;52.380;9.962;2023-05-28T02:08:27;27.24;26.14;29.56;;
80324;Laerm;69639;52.380;9.962;2023-05-28T02:10:28;27.29;25.96;35.57;;
80324;Laerm;69639;52.380;9.962;2023-05-28T02:12:30;27.34;25.88;31.82;;
80324;Laerm;69639;52.380;9.962;2023-05-28T02:14:32;27.39;26.17;33.69;;
80324;Laerm;69639;52.380;9.962;2023-05-28T02:16:33;27.33;26.07;32.35;;
80324;Laerm;69639;52.380;9.962;2023-05-28T02:18:36;27.34;26.19;32.85;;
80324;Laerm;69639;52.380;9.962;2023-05-28T02:20:38;27.37;26.10;33.26;;
80324;Laerm;69639;52.380;9.962;2023-05-28T02:22:40;27.54;26.05;33.99;;
80324;Laerm;69639;52.380;9.962;2023-05-28T02:24:41;28.38;26.07;47.60;;
80324;Laerm;69639;52.380;9.962;2023-05-28T02:26:43;27.45;25.89;33.37;;
80324;Laerm;69639;52.380;9.962;2023-05-28T02:28:45;27.37;26.13;32.57;;
80324;Laerm;69639;52.380;9.962;2023-05-28T02:30:46;27.31;26.21;30.76;;
80324;Laerm;69639;52.380;9.962;2023-05-28T02:32:48;27.38;26.10;31.95;;
80324;Laerm;69639;52.380;9.962;2023-05-28T02:34:50;27.32;26.13;30.28;;
80324;Laerm;69639;52.380;9.962;2023-05-28T02:36:52;27.40;26.09;32.81;;
80324;Laerm;69639;52.380;9.962;2023-05-28T02:38:53;27.36;26.06;33.20;;
80324;Laerm;69639;52.380;9.962;2023-05-28T02:40:55;27.32;26.18;30.66;;
80324;Laerm;69639;52.380;9.962;2023-05-28T02:42:57;27.60;26.20;33.21;;
80324;Laerm;69639;52.380;9.962;2023-05-28T02:44:58;27.36;26.03;32.34;;
80324;Laerm;69639;52.380;9.962;2023-05-28T02:47:00;27.57;26.04;37.46;;
80324;Laerm;69639;52.380;9.962;2023-05-28T02:49:02;27.42;26.08;45.84;;
80324;Laerm;69639;52.380;9.962;2023-05-28T02:51:03;28.24;26.21;36.26;;
80324;Laerm;69639;52.380;9.962;2023-05-28T02:53:05;27.35;26.04;32.13;;
80324;Laerm;69639;52.380;9.962;2023-05-28T02:55:07;27.27;25.88;31.15;;
80324;Laerm;69639;52.380;9.962;2023-05-28T02:57:09;27.37;26.23;34.06;;
80324;Laerm;69639;52.380;9.962;2023-05-28T02:59:10;27.31;26.02;30.00;;
80324;Laerm;69639;52.380;9.962;2023-05-28T03:01:12;27.28;25.99;30.19;;
80324;Laerm;69639;52.380;9.962;2023-05-28T03:03:14;27.34;26.16;34.70;;
80324;Laerm;69639;52.380;9.962;2023-05-28T03:05:15;27.46;25.81;33.24;;
80324;Laerm;69639;52.380;9.962;2023-05-28T03:07:17;27.30;26.03;32.35;;
80324;Laerm;69639;52.380;9.962;2023-05-28T03:09:19;27.26;25.94;31.13;;
80324;Laerm;69639;52.380;9.962;2023-05-28T03:11:21;27.31;26.25;31.08;;
80324;Laerm;69639;52.380;9.962;2023-05-28T03:13:23;27.28;26.05;32.93;;
80324;Laerm;69639;52.380;9.962;2023-05-28T03:15:25;27.40;25.91;38.44;;
80324;Laerm;69639;52.380;9.962;2023-05-28T03:17:29;27.32;25.98;33.10;;
80324;Laerm;69639;52.380;9.962;2023-05-28T03:19:31;27.34;26.21;32.17;;
80324;Laerm;69639;52.380;9.962;2023-05-28T03:21:33;27.29;26.12;31.44;;
80324;Laerm;69639;52.380;9.962;2023-05-28T03:23:34;27.33;26.05;31.48;;
80324;Laerm;69639;52.380;9.962;2023-05-28T03:25:36;27.26;25.96;30.35;;
80324;Laerm;69639;52.380;9.962;2023-05-28T03:27:38;27.31;26.01;32.16;;
80324;Laerm;69639;52.380;9.962;2023-05-28T03:29:39;27.34;26.14;44.00;;
80324;Laerm;69639;52.380;9.962;2023-05-28T03:31:45;27.26;26.12;30.13;;
80324;Laerm;69639;52.380;9.962;2023-05-28T03:33:47;27.26;26.08;34.05;;
80324;Laerm;69639;52.380;9.962;2023-05-28T03:35:49;27.36;26.02;36.75;;
80324;Laerm;69639;52.380;9.962;2023-05-28T03:37:51;27.26;26.04;31.49;;
80324;Laerm;69639;52.380;9.962;2023-05-28T03:39:53;27.32;25.94;31.20;;
80324;Laerm;69639;52.380;9.962;2023-05-28T03:41:55;27.30;26.06;31.33;;
80324;Laerm;69639;52.380;9.962;2023-05-28T03:43:56;27.33;26.14;31.78;;
80324;Laerm;69639;52.380;9.962;2023-05-28T03:45:58;27.36;25.97;37.13;;
80324;Laerm;69639;52.380;9.962;2023-05-28T03:48:01;27.27;26.07;31.10;;
80324;Laerm;69639;52.380;9.962;2023-05-28T03:50:03;27.24;26.04;30.45;;
80324;Laerm;69639;52.380;9.962;2023-05-28T03:52:24;27.28;25.93;32.25;;
80324;Laerm;69639;52.380;9.962;2023-05-28T03:54:44;27.32;26.19;32.20;;
80324;Laerm;69639;52.380;9.962;2023-05-28T03:56:46;27.29;26.15;32.02;;
80324;Laerm;69639;52.380;9.962;2023-05-28T03:58:47;27.32;26.24;30.39;;
80324;Laerm;69639;52.380;9.962;2023-05-28T04:01:07;27.32;25.89;32.50;;
80324;Laerm;69639;52.380;9.962;2023-05-28T04:03:09;27.31;26.09;32.89;;
80324;Laerm;69639;52.380;9.962;2023-05-28T04:05:11;27.27;26.23;30.46;;
80324;Laerm;69639;52.380;9.962;2023-05-28T04:07:31;27.27;26.15;31.40;;
80324;Laerm;69639;52.380;9.962;2023-05-28T04:09:32;27.29;26.05;30.67;;
80324;Laerm;69639;52.380;9.962;2023-05-28T04:11:34;27.32;26.10;30.73;;
80324;Laerm;69639;52.380;9.962;2023-05-28T04:13:36;27.36;26.13;30.95;;
80324;Laerm;69639;52.380;9.962;2023-05-28T04:15:56;27.28;26.03;31.78;;
80324;Laerm;69639;52.380;9.962;2023-05-28T04:17:58;27.30;26.10;32.51;;
80324;Laerm;69639;52.380;9.962;2023-05-28T04:19:59;27.25;26.23;29.88;;
80324;Laerm;69639;52.380;9.962;2023-05-28T04:22:01;27.29;26.03;31.32;;
80324;Laerm;69639;52.380;9.962;2023-05-28T04:24:03;27.34;26.14;33.50;;
80324;Laerm;69639;52.380;9.962;2023-05-28T04:26:05;27.36;25.99;33.25;;
80324;Laerm;69639;52.380;9.962;2023-05-28T04:28:07;27.30;26.13;31.39;;
80324;Laerm;69639;52.380;9.962;2023-05-28T04:30:09;27.26;26.12;34.29;;
80324;Laerm;69639;52.380;9.962;2023-05-28T04:32:11;28.55;25.98;48.55;;
80324;Laerm;69639;52.380;9.962;2023-05-28T04:34:13;27.25;25.93;29.76;;
80324;Laerm;69639;52.380;9.962;2023-05-28T04:36:15;27.43;25.95;36.70;;
80324;Laerm;69639;52.380;9.962;2023-05-28T04:38:17;27.33;26.00;33.06;;
80324;Laerm;69639;52.380;9.962;2023-05-28T04:40:19;27.35;26.18;30.74;;
80324;Laerm;69639;52.380;9.962;2023-05-28T04:42:20;27.29;26.18;30.82;;
80324;Laerm;69639;52.380;9.962;2023-05-28T04:44:22;27.31;25.92;30.28;;
80324;Laerm;69639;52.380;9.962;2023-05-28T04:46:24;27.24;26.19;31.70;;
80324;Laerm;69639;52.380;9.962;2023-05-28T04:48:25;27.24;25.99;30.31;;
80324;Laerm;69639;52.380;9.962;2023-05-28T04:50:28;27.27;26.16;30.75;;
80324;Laerm;69639;52.380;9.962;2023-05-28T04:52:33;27.28;26.24;30.32;;
80324;Laerm;69639;52.380;9.962;2023-05-28T04:54:35;27.25;25.94;30.80;;
80324;Laerm;69639;52.380;9.962;2023-05-28T04:56:36;27.24;25.96;31.60;;
80324;Laerm;69639;52.380;9.962;2023-05-28T04:58:56;27.24;26.04;31.19;;
80324;Laerm;69639;52.380;9.962;2023-05-28T05:00:58;27.30;26.11;31.15;;
80324;Laerm;69639;52.380;9.962;2023-05-28T05:03:00;27.24;25.99;30.60;;
80324;Laerm;69639;52.380;9.962;2023-05-28T05:05:02;27.25;26.25;32.32;;
80324;Laerm;69639;52.380;9.962;2023-05-28T05:07:04;27.25;25.99;29.96;;
80324;Laerm;69639;52.380;9.962;2023-05-28T05:09:05;28.95;26.12;53.33;;
80324;Laerm;69639;52.380;9.962;2023-05-28T05:11:07;27.38;26.08;37.33;;
80324;Laerm;69639;52.380;9.962;2023-05-28T05:13:09;27.27;25.94;31.13;;
80324;Laerm;69639;52.380;9.962;2023-05-28T05:15:10;27.26;26.07;30.82;;
80324;Laerm;69639;52.380;9.962;2023-05-28T05:17:12;27.28;25.94;31.52;;
80324;Laerm;69639;52.380;9.962;2023-05-28T05:19:16;27.42;25.83;47.34;;
80324;Laerm;69639;52.380;9.962;2023-05-28T05:21:17;27.26;26.01;32.63;;
80324;Laerm;69639;52.380;9.962;2023-05-28T05:23:19;27.46;25.77;34.94;;
80324;Laerm;69639;52.380;9.962;2023-05-28T05:25:21;27.97;26.08;42.54;;
80324;Laerm;69639;52.380;9.962;2023-05-28T05:27:22;27.34;26.03;32.10;;
80324;Laerm;69639;52.380;9.962;2023-05-28T05:29:24;28.72;26.09;45.40;;
80324;Laerm;69639;52.380;9.962;2023-05-28T05:31:26;39.22;25.74;71.98;;
80324;Laerm;69639;52.380;9.962;2023-05-28T05:33:28;35.39;26.19;58.61;;
80324;Laerm;69639;52.380;9.962;2023-05-28T05:35:30;30.32;27.59;45.76;;
80324;Laerm;69639;52.380;9.962;2023-05-28T05:37:32;30.03;27.46;42.42;;
80324;Laerm;69639;52.380;9.962;2023-05-28T05:39:34;40.60;27.90;66.10;;
80324;Laerm;69639;52.380;9.962;2023-05-28T05:41:36;29.82;27.48;40.22;;
80324;Laerm;69639;52.380;9.962;2023-05-28T05:43:38;41.76;27.80;75.95;;
80324;Laerm;69639;52.380;9.962;2023-05-28T05:45:40;31.11;27.92;44.16;;
80324;Laerm;69639;52.380;9.962;2023-05-28T05:47:41;30.26;27.78;37.96;;
80324;Laerm;69639;52.380;9.962;2023-05-28T05:49:43;30.48;27.83;41.92;;
80324;Laerm;69639;52.380;9.962;2023-05-28T05:51:45;31.05;28.37;44.19;;
80324;Laerm;69639;52.380;9.962;2023-05-28T05:53:46;37.77;27.93;63.60;;
80324;Laerm;69639;52.380;9.962;2023-05-28T05:55:48;30.89;27.99;44.91;;
80324;Laerm;69639;52.380;9.962;2023-05-28T05:57:50;32.36;28.14;55.32;;
80324;Laerm;69639;52.380;9.962;2023-05-28T05:59:53;32.52;28.14;49.51;;
80324;Laerm;69639;52.380;9.962;2023-05-28T06:01:55;32.09;28.39;46.01;;
80324;Laerm;69639;52.380;9.962;2023-05-28T06:03:56;31.13;28.06;43.65;;
80324;Laerm;69639;52.380;9.962;2023-05-28T06:05:58;31.91;27.61;48.91;;
80324;Laerm;69639;52.380;9.962;2023-05-28T06:08:00;31.94;28.41;47.01;;
80324;Laerm;69639;52.380;9.962;2023-05-28T06:10:02;43.14;28.12;69.64;;
80324;Laerm;69639;52.380;9.962;2023-05-28T06:12:03;30.95;27.92;40.06;;
80324;Laerm;69639;52.380;9.962;2023-05-28T06:14:06;31.56;27.63;49.87;;
80324;Laerm;69639;52.380;9.962;2023-05-28T06:16:07;31.09;27.98;45.35;;
80324;Laerm;69639;52.380;9.962;2023-05-28T06:18:10;31.56;28.11;44.01;;
80324;Laerm;69639;52.380;9.962;2023-05-28T06:20:11;31.15;27.74;47.88;;
80324;Laerm;69639;52.380;9.962;2023-05-28T06:22:13;38.13;27.80;63.50;;
80324;Laerm;69639;52.380;9.962;2023-05-28T06:24:15;34.82;27.95;57.99;;
80324;Laerm;69639;52.380;9.962;2023-05-28T06:26:16;30.91;27.82;46.23;;
80324;Laerm;69639;52.380;9.962;2023-05-28T06:28:18;30.96;27.83;46.31;;
80324;Laerm;69639;52.380;9.962;2023-05-28T06:30:20;30.66;27.77;41.86;;
80324;Laerm;69639;52.380;9.962;2023-05-28T06:32:22;30.82;28.01;48.50;;
80324;Laerm;69639;52.380;9.962;2023-05-28T06:34:23;30.91;27.71;50.53;;
80324;Laerm;69639;52.380;9.962;2023-05-28T06:36:25;39.87;26.75;66.44;;
80324;Laerm;69639;52.380;9.962;2023-05-28T06:38:27;36.21;26.67;60.29;;
80324;Laerm;69639;52.380;9.962;2023-05-28T06:40:29;37.67;26.80;67.35;;
80324;Laerm;69639;52.380;9.962;2023-05-28T06:42:30;32.54;26.59;49.73;;
80324;Laerm;69639;52.380;9.962;2023-05-28T06:44:50;34.48;26.59;53.72;;
80324;Laerm;69639;52.380;9.962;2023-05-28T06:46:53;34.19;26.46;57.36;;
80324;Laerm;69639;52.380;9.962;2023-05-28T06:48:55;32.39;26.45;48.04;;
80324;Laerm;69639;52.380;9.962;2023-05-28T06:50:56;32.07;26.23;57.11;;
80324;Laerm;69639;52.380;9.962;2023-05-28T06:52:58;28.99;26.52;48.96;;
80324;Laerm;69639;52.380;9.962;2023-05-28T06:55:10;29.70;26.46;50.39;;
80324;Laerm;69639;52.380;9.962;2023-05-28T06:57:12;28.22;26.38;41.25;;
80324;Laerm;69639;52.380;9.962;2023-05-28T06:59:20;27.95;26.50;37.43;;
80324;Laerm;69639;52.380;9.962;2023-05-28T07:01:22;27.75;26.44;35.07;;
80324;Laerm;69639;52.380;9.962;2023-05-28T07:03:23;27.97;26.41;50.08;;
80324;Laerm;69639;52.380;9.962;2023-05-28T07:05:25;29.77;26.13;57.38;;
80324;Laerm;69639;52.380;9.962;2023-05-28T07:07:27;27.45;25.94;31.42;;
80324;Laerm;69639;52.380;9.962;2023-05-28T07:09:28;27.47;26.26;34.72;;
80324;Laerm;69639;52.380;9.962;2023-05-28T07:11:30;27.40;26.14;33.36;;
80324;Laerm;69639;52.380;9.962;2023-05-28T07:13:32;28.07;26.20;39.34;;
80324;Laerm;69639;52.380;9.962;2023-05-28T07:15:33;27.54;26.19;32.85;;
80324;Laerm;69639;52.380;9.962;2023-05-28T07:17:35;29.79;26.26;41.60;;
80324;Laerm;69639;52.380;9.962;2023-05-28T07:19:37;27.47;26.33;31.38;;
80324;Laerm;69639;52.380;9.962;2023-05-28T07:21:38;27.46;26.23;32.01;;
80324;Laerm;69639;52.380;9.962;2023-05-28T07:23:40;27.45;26.24;32.56;;
80324;Laerm;69639;52.380;9.962;2023-05-28T07:25:42;27.47;26.19;34.05;;
80324;Laerm;69639;52.380;9.962;2023-05-28T07:27:44;27.46;26.18;33.21;;
80324;Laerm;69639;52.380;9.962;2023-05-28T07:29:46;27.52;25.86;33.84;;
80324;Laerm;69639;52.380;9.962;2023-05-28T07:31:47;29.08;26.18;43.77;;
80324;Laerm;69639;52.380;9.962;2023-05-28T07:33:49;27.55;26.15;39.43;;
80324;Laerm;69639;52.380;9.962;2023-05-28T07:35:51;27.41;26.17;39.67;;
80324;Laerm;69639;52.380;9.962;2023-05-28T07:37:53;27.50;26.18;36.40;;
80324;Laerm;69639;52.380;9.962;2023-05-28T07:39:54;27.45;26.06;36.85;;
80324;Laerm;69639;52.380;9.962;2023-05-28T07:41:56;27.34;26.25;30.23;;
80324;Laerm;69639;52.380;9.962;2023-05-28T07:43:58;27.44;26.11;41.64;;
80324;Laerm;69639;52.380;9.962;2023-05-28T07:45:59;27.67;26.15;41.38;;
80324;Laerm;69639;52.380;9.962;2023-05-28T07:48:01;27.69;26.24;32.23;;
80324;Laerm;69639;52.380;9.962;2023-05-28T07:50:03;27.77;26.25;41.61;;
80324;Laerm;69639;52.380;9.962;2023-05-28T07:52:05;27.72;25.93;39.36;;
80324;Laerm;69639;52.380;9.962;2023-05-28T07:54:07;27.44;26.31;31.11;;
80324;Laerm;69639;52.380;9.962;2023-05-28T07:56:08;27.63;26.25;41.45;;
80324;Laerm;69639;52.380;9.962;2023-05-28T07:58:10;27.66;26.15;39.40;;
80324;Laerm;69639;52.380;9.962;2023-05-28T08:00:12;27.51;26.04;38.84;;
80324;Laerm;69639;52.380;9.962;2023-05-28T08:02:33;27.75;26.19;36.31;;
80324;Laerm;69639;52.380;9.962;2023-05-28T08:04:53;27.53;26.14;40.56;;
80324;Laerm;69639;52.380;9.962;2023-05-28T08:07:13;27.53;25.60;38.64;;
80324;Laerm;69639;52.380;9.962;2023-05-28T08:09:15;27.58;26.24;34.20;;
80324;Laerm;69639;52.380;9.962;2023-05-28T08:11:16;27.73;26.17;38.90;;
80324;Laerm;69639;52.380;9.962;2023-05-28T08:13:18;27.75;26.24;36.06;;
80324;Laerm;69639;52.380;9.962;2023-05-28T08:15:30;27.77;25.93;35.74;;
80324;Laerm;69639;52.380;9.962;2023-05-28T08:17:33;27.59;26.23;35.94;;
80324;Laerm;69639;52.380;9.962;2023-05-28T08:19:43;28.90;26.25;49.38;;
80324;Laerm;69639;52.380;9.962;2023-05-28T08:21:45;27.49;25.98;35.25;;
80324;Laerm;69639;52.380;9.962;2023-05-28T08:23:47;28.16;26.25;34.70;;
80324;Laerm;69639;52.380;9.962;2023-05-28T08:25:49;33.37;26.19;49.73;;
80324;Laerm;69639;52.380;9.962;2023-05-28T08:27:50;39.89;26.22;60.89;;
80324;Laerm;69639;52.380;9.962;2023-05-28T08:29:52;45.56;26.37;70.85;;
80324;Laerm;69639;52.380;9.962;2023-05-28T08:31:54;47.17;27.17;66.12;;
80324;Laerm;69639;52.380;9.962;2023-05-28T08:33:55;32.85;27.07;51.97;;
80324;Laerm;69639;52.380;9.962;2023-05-28T08:36:15;43.39;27.07;71.61;;
80324;Laerm;69639;52.380;9.962;2023-05-28T08:38:17;30.69;27.14;50.52;;
80324;Laerm;69639;52.380;9.962;2023-05-28T08:40:19;33.39;27.10;58.31;;
80324;Laerm;69639;52.380;9.962;2023-05-28T08:42:39;45.03;26.88;68.69;;
80324;Laerm;69639;52.380;9.962;2023-05-28T08:44:41;32.77;26.93;53.42;;
80324;Laerm;69639;52.380;9.962;2023-05-28T08:46:43;39.38;26.65;62.42;;
80324;Laerm;69639;52.380;9.962;2023-05-28T08:48:45;35.77;26.66;56.71;;
80324;Laerm;69639;52.380;9.962;2023-05-28T08:50:49;38.99;26.79;60.25;;
80324;Laerm;69639;52.380;9.962;2023-05-28T08:52:51;46.45;26.77;75.36;;
80324;Laerm;69639;52.380;9.962;2023-05-28T08:54:53;51.83;27.69;81.80;;
80324;Laerm;69639;52.380;9.962;2023-05-28T08:57:13;34.85;27.70;54.92;;
80324;Laerm;69639;52.380;9.962;2023-05-28T08:59:34;44.57;27.82;69.81;;
80324;Laerm;69639;52.380;9.962;2023-05-28T09:01:55;39.89;28.14;64.64;;
80324;Laerm;69639;52.380;9.962;2023-05-28T09:04:15;52.66;28.42;66.91;;
80324;Laerm;69639;52.380;9.962;2023-05-28T09:06:38;55.85;27.79;65.27;;
80324;Laerm;69639;52.380;9.962;2023-05-28T09:08:40;41.05;26.50;58.76;;
80324;Laerm;69639;52.380;9.962;2023-05-28T09:11:11;38.56;26.64;62.74;;
80324;Laerm;69639;52.380;9.962;2023-05-28T09:13:12;36.55;26.52;58.30;;
80324;Laerm;69639;52.380;9.962;2023-05-28T09:15:16;36.00;26.77;59.40;;
80324;Laerm;69639;52.380;9.962;2023-05-28T09:17:36;47.82;26.68;78.46;;
80324;Laerm;69639;52.380;9.962;2023-05-28T09:19:38;37.19;27.18;65.95;;
80324;Laerm;69639;52.380;9.962;2023-05-28T09:21:52;40.95;27.25;63.48;;
80324;Laerm;69639;52.380;9.962;2023-05-28T09:23:55;33.38;27.64;51.75;;
80324;Laerm;69639;52.380;9.962;2023-05-28T09:25:58;32.61;27.49;51.03;;
80324;Laerm;69639;52.380;9.962;2023-05-28T09:28:18;40.26;26.61;64.24;;
80324;Laerm;69639;52.380;9.962;2023-05-28T09:30:19;43.08;26.37;65.69;;
80324;Laerm;69639;52.380;9.962;2023-05-28T09:32:39;32.70;26.38;50.90;;
80324;Laerm;69639;52.380;9.962;2023-05-28T09:34:41;50.42;26.49;78.30;;
80324;Laerm;69639;52.380;9.962;2023-05-28T09:37:05;39.53;33.69;56.86;;
80324;Laerm;69639;52.380;9.962;2023-05-28T09:39:08;39.74;34.52;55.55;;
80324;Laerm;69639;52.380;9.962;2023-05-28T09:41:21;44.71;26.34;72.10;;
80324;Laerm;69639;52.380;9.962;2023-05-28T09:43:29;46.43;33.82;61.38;;
80324;Laerm;69639;52.380;9.962;2023-05-28T09:45:30;43.42;26.59;57.13;;
80324;Laerm;69639;52.380;9.962;2023-05-28T09:47:32;49.58;26.47;64.04;;
80324;Laerm;69639;52.380;9.962;2023-05-28T09:49:34;58.97;26.50;83.09;;
80324;Laerm;69639;52.380;9.962;2023-05-28T09:51:36;56.56;26.44;77.87;;
80324;Laerm;69639;52.380;9.962;2023-05-28T09:53:43;68.22;50.36;82.47;;
80324;Laerm;69639;52.380;9.962;2023-05-28T09:55:45;56.08;26.54;80.41;;
80324;Laerm;69639;52.380;9.962;2023-05-28T09:57:56;42.50;26.51;66.68;;
80324;Laerm;69639;52.380;9.962;2023-05-28T10:00:00;35.42;26.26;58.87;;
80324;Laerm;69639;52.380;9.962;2023-05-28T10:02:18;37.49;26.15;59.43;;
80324;Laerm;69639;52.380;9.962;2023-05-28T10:04:35;31.69;25.99;51.05;;
80324;Laerm;69639;52.380;9.962;2023-05-28T10:06:38;27.46;26.30;34.23;;
80324;Laerm;69639;52.380;9.962;2023-05-28T10:08:43;27.92;26.00;43.29;;
80324;Laerm;69639;52.380;9.962;2023-05-28T10:11:11;27.72;26.36;35.75;;
80324;Laerm;69639;52.380;9.962;2023-05-28T10:13:15;27.69;25.95;41.10;;
80324;Laerm;69639;52.380;9.962;2023-05-28T10:15:17;27.50;26.09;34.60;;
80324;Laerm;69639;52.380;9.962;2023-05-28T10:17:20;29.81;26.12;52.43;;
80324;Laerm;69639;52.380;9.962;2023-05-28T10:19:22;46.65;26.99;68.55;;
80324;Laerm;69639;52.380;9.962;2023-05-28T10:21:25;43.23;35.91;68.67;;
80324;Laerm;69639;52.380;9.962;2023-05-28T10:23:27;38.67;34.05;56.89;;
80324;Laerm;69639;52.380;9.962;2023-05-28T10:25:29;55.51;33.15;73.69;;
80324;Laerm;69639;52.380;9.962;2023-05-28T10:27:32;56.85;50.67;67.36;;
80324;Laerm;69639;52.380;9.962;2023-05-28T10:29:38;49.90;27.78;73.28;;
80324;Laerm;69639;52.380;9.962;2023-05-28T10:31:40;50.88;26.61;75.58;;
80324;Laerm;69639;52.380;9.962;2023-05-28T10:33:43;54.00;26.41;78.20;;
80324;Laerm;69639;52.380;9.962;2023-05-28T10:36:03;54.76;26.15;77.53;;
80324;Laerm;69639;52.380;9.962;2023-05-28T10:38:09;27.38;26.04;30.00;;
80324;Laerm;69639;52.380;9.962;2023-05-28T10:40:21;27.46;26.30;30.75;;
80324;Laerm;69639;52.380;9.962;2023-05-28T10:42:23;48.57;26.39;78.78;;
80324;Laerm;69639;52.380;9.962;2023-05-28T10:44:25;44.47;26.36;70.45;;
80324;Laerm;69639;52.380;9.962;2023-05-28T10:46:35;31.77;26.32;57.71;;
80324;Laerm;69639;52.380;9.962;2023-05-28T10:48:41;27.46;26.27;34.03;;
80324;Laerm;69639;52.380;9.962;2023-05-28T10:50:58;33.77;26.30;59.68;;
80324;Laerm;69639;52.380;9.962;2023-05-28T10:53:18;33.99;26.39;51.27;;
80324;Laerm;69639;52.380;9.962;2023-05-28T10:55:19;37.83;26.04;62.46;;
80324;Laerm;69639;52.380;9.962;2023-05-28T10:57:47;28.24;26.16;37.06;;
80324;Laerm;69639;52.380;9.962;2023-05-28T10:59:57;27.82;26.27;40.57;;
80324;Laerm;69639;52.380;9.962;2023-05-28T11:02:03;27.93;26.08;45.58;;
80324;Laerm;69639;52.380;9.962;2023-05-28T11:04:04;27.81;26.30;36.91;;
80324;Laerm;69639;52.380;9.962;2023-05-28T11:06:06;27.71;26.13;34.40;;
80324;Laerm;69639;52.380;9.962;2023-05-28T11:08:08;31.94;26.30;52.77;;
80324;Laerm;69639;52.380;9.962;2023-05-28T11:10:11;48.05;26.34;74.31;;
80324;Laerm;69639;52.380;9.962;2023-05-28T11:12:13;27.47;26.17;33.21;;
80324;Laerm;69639;52.380;9.962;2023-05-28T11:14:15;27.35;26.08;30.42;;
80324;Laerm;69639;52.380;9.962;2023-05-28T11:16:18;27.59;26.26;36.04;;
80324;Laerm;69639;52.380;9.962;2023-05-28T11:18:20;27.56;26.20;36.21;;
80324;Laerm;69639;52.380;9.962;2023-05-28T11:20:25;27.50;25.90;35.38;;
80324;Laerm;69639;52.380;9.962;2023-05-28T11:22:33;28.97;26.14;51.22;;
80324;Laerm;69639;52.380;9.962;2023-05-28T11:24:57;45.20;26.31;68.77;;
80324;Laerm;69639;52.380;9.962;2023-05-28T11:26:59;45.17;27.16;73.43;;
80324;Laerm;69639;52.380;9.962;2023-05-28T11:29:19;39.90;27.22;61.82;;
80324;Laerm;69639;52.380;9.962;2023-05-28T11:31:21;30.61;27.31;48.46;;
80324;Laerm;69639;52.380;9.962;2023-05-28T11:33:26;28.78;26.18;42.62;;
80324;Laerm;69639;52.380;9.962;2023-05-28T11:35:28;29.96;26.17;51.53;;
80324;Laerm;69639;52.380;9.962;2023-05-28T11:37:32;27.94;26.31;41.47;;